createdAt,value
2023-02-04T00:01:30.385Z,17.80
2023-02-04T00:05:27.623Z,17.20
2023-02-04T00:09:20.809Z,18.90
2023-02-04T00:13:14.846Z,17.80
2023-02-04T00:17:20.767Z,18.80
2023-02-04T00:21:23.665Z,18.20
2023-02-04T00:25:27.561Z,17.90
2023-02-04T00:29:24.369Z,14.50
2023-02-04T00:33:28.432Z,16.40
2023-02-04T00:37:32.470Z,14.70
2023-02-04T00:41:35.445Z,13.70
2023-02-04T00:45:39.525Z,12.20
2023-02-04T00:49:43.768Z,10.10
2023-02-04T00:53:47.833Z,11.50
2023-02-04T00:57:53.781Z,9.30
2023-02-04T01:01:56.990Z,9.10
2023-02-04T01:06:00.955Z,9.00
2023-02-04T01:10:05.172Z,9.00
2023-02-04T01:14:09.195Z,6.60
2023-02-04T01:17:53.125Z,7.90
2023-02-04T01:21:56.055Z,11.80
2023-02-04T01:25:59.906Z,7.60
2023-02-04T01:30:03.861Z,9.90
2023-02-04T01:34:01.591Z,6.50
2023-02-04T01:38:05.741Z,8.10
2023-02-04T01:41:59.867Z,6.70
2023-02-04T01:45:54.446Z,9.80
2023-02-04T01:49:59.008Z,9.10
2023-02-04T01:53:50.781Z,7.40
2023-02-04T01:57:54.842Z,7.50
2023-02-04T02:04:49.662Z,10.80
2023-02-04T02:07:32.712Z,9.30
2023-02-04T02:10:16.720Z,9.30
2023-02-04T02:12:59.839Z,9.70
2023-02-04T02:15:43.379Z,10.30
2023-02-04T02:18:26.582Z,10.40
2023-02-04T02:21:12.311Z,12.00
2023-02-04T02:24:01.215Z,14.40
2023-02-04T02:26:44.120Z,15.30
2023-02-04T02:29:28.036Z,16.70
2023-02-04T02:32:14.280Z,15.50
2023-02-04T02:34:58.312Z,14.00
2023-02-04T02:37:41.392Z,16.60
2023-02-04T02:40:25.003Z,14.60
2023-02-04T02:43:12.312Z,17.00
2023-02-04T02:45:58.706Z,16.30
2023-02-04T02:48:41.766Z,17.20
2023-02-04T02:51:24.604Z,15.00
2023-02-04T02:54:19.724Z,13.90
2023-02-04T02:57:03.400Z,13.10
2023-02-04T02:59:46.839Z,16.60
2023-02-04T03:02:29.962Z,15.90
2023-02-04T03:05:13.887Z,16.40
2023-02-04T03:07:59.275Z,14.60
2023-02-04T03:10:45.159Z,20.70
2023-02-04T03:13:28.849Z,13.50
2023-02-04T03:16:13.221Z,12.80
2023-02-04T03:18:56.342Z,12.50
2023-02-04T03:21:40.289Z,13.60
2023-02-04T03:24:23.840Z,12.50
2023-02-04T03:27:08.058Z,10.80
2023-02-04T03:29:51.310Z,11.40
2023-02-04T03:32:34.722Z,11.40
2023-02-04T03:35:18.144Z,14.80
2023-02-04T03:38:01.278Z,11.80
2023-02-04T03:40:45.742Z,9.70
2023-02-04T03:43:28.564Z,11.80
2023-02-04T03:46:11.423Z,10.20
2023-02-04T03:51:37.087Z,9.80
2023-02-04T03:57:02.908Z,8.60
2023-02-04T04:02:28.826Z,16.10
2023-02-04T04:05:12.449Z,9.70
2023-02-04T04:07:55.600Z,10.70
2023-02-04T04:10:39.431Z,8.80
2023-02-04T04:13:23.561Z,11.30
2023-02-04T04:18:50.243Z,12.00
2023-02-04T04:21:33.065Z,16.20
2023-02-04T04:26:58.753Z,9.70
2023-02-04T04:32:24.624Z,11.20
2023-02-04T04:35:07.818Z,7.30
2023-02-04T04:37:50.639Z,13.50
2023-02-04T04:43:16.602Z,11.20
2023-02-04T04:48:42.061Z,8.30
2023-02-04T04:51:25.012Z,9.40
2023-02-04T04:54:08.436Z,9.80
2023-02-04T04:56:51.632Z,12.60
2023-02-04T04:59:34.452Z,9.10
2023-02-04T05:05:00.355Z,9.10
2023-02-04T05:07:43.502Z,8.00
2023-02-04T05:10:26.415Z,8.00
2023-02-04T05:13:10.153Z,7.20
2023-02-04T05:15:52.955Z,7.50
2023-02-04T05:21:18.592Z,8.60
2023-02-04T05:26:44.315Z,9.70
2023-02-04T05:29:27.499Z,6.80
2023-02-04T05:32:10.299Z,11.40
2023-02-04T05:37:36.046Z,8.10
2023-02-04T05:43:02.124Z,9.30
2023-02-04T05:45:45.113Z,11.40
2023-02-04T05:48:27.988Z,8.80
2023-02-04T05:53:53.888Z,9.10
2023-02-04T05:56:37.742Z,5.70
2023-02-04T05:59:20.611Z,7.40
2023-02-04T06:04:46.353Z,8.60
2023-02-04T06:07:29.147Z,9.80
2023-02-04T06:10:11.982Z,12.70
2023-02-04T06:15:37.990Z,16.70
2023-02-04T06:21:04.878Z,9.80
2023-02-04T06:23:47.736Z,15.60
2023-02-04T06:29:13.525Z,13.10
2023-02-04T06:31:56.459Z,17.80
2023-02-04T06:34:39.450Z,13.40
2023-02-04T06:37:24.309Z,15.40
2023-02-04T06:40:09.095Z,13.60
2023-02-04T06:42:51.959Z,12.50
2023-02-04T06:48:19.122Z,14.50
2023-02-04T06:51:02.218Z,10.30
2023-02-04T06:53:46.139Z,8.60
2023-02-04T06:56:30.222Z,16.10
2023-02-04T06:59:13.013Z,9.10
2023-02-04T07:01:55.794Z,14.40
2023-02-04T07:07:21.466Z,6.40
2023-02-04T07:12:47.769Z,10.60
2023-02-04T07:18:15.480Z,8.90
2023-02-04T07:23:41.297Z,6.30
2023-02-04T07:26:24.168Z,5.10
2023-02-04T07:31:55.281Z,6.10
2023-02-04T07:34:38.299Z,6.30
2023-02-04T07:37:21.225Z,4.40
2023-02-04T07:45:32.325Z,7.40
2023-02-04T07:48:15.903Z,7.60
2023-02-04T07:53:41.489Z,5.00
2023-02-04T07:59:07.085Z,5.60
2023-02-04T08:04:33.083Z,7.20
2023-02-04T08:07:15.909Z,5.70
2023-02-04T08:12:41.412Z,7.90
2023-02-04T08:18:06.901Z,5.60
2023-02-04T08:23:33.414Z,7.90
2023-02-04T08:26:16.427Z,7.00
2023-02-04T08:28:59.257Z,6.80
2023-02-04T08:34:25.023Z,4.20
2023-02-04T08:37:08.068Z,5.50
2023-02-04T08:39:50.970Z,7.50
2023-02-04T08:42:34.932Z,5.70
2023-02-04T08:45:17.766Z,5.20
2023-02-04T08:50:43.889Z,7.00
2023-02-04T08:53:26.814Z,5.40
2023-02-04T08:56:10.748Z,4.10
2023-02-04T08:58:53.668Z,7.40
2023-02-04T09:01:36.695Z,7.30
2023-02-04T09:04:21.450Z,5.50
2023-02-04T09:07:04.458Z,6.30
2023-02-04T09:09:47.364Z,6.00
2023-02-04T09:12:30.361Z,7.50
2023-02-04T09:15:13.411Z,7.40
2023-02-04T09:18:04.738Z,9.00
2023-02-04T09:20:52.771Z,7.00
2023-02-04T09:23:35.717Z,9.30
2023-02-04T09:26:18.640Z,5.50
2023-02-04T09:29:01.487Z,6.60
2023-02-04T09:34:28.118Z,5.00
2023-02-04T09:37:11.008Z,6.80
2023-02-04T09:39:54.904Z,8.70
2023-02-04T09:42:37.840Z,4.10
2023-02-04T09:45:29.161Z,4.60
2023-02-04T09:48:14.498Z,8.40
2023-02-04T09:51:08.629Z,7.70
2023-02-04T09:53:57.078Z,6.70
2023-02-04T09:56:40.642Z,5.50
2023-02-04T09:59:27.881Z,4.00
2023-02-04T10:02:16.990Z,4.10
2023-02-04T10:04:59.913Z,6.40
2023-02-04T10:10:27.967Z,8.40
2023-02-04T10:13:18.537Z,6.20
2023-02-04T10:16:03.976Z,6.80
2023-02-04T10:18:48.069Z,3.70
2023-02-04T10:21:33.032Z,9.90
2023-02-04T10:24:21.572Z,5.60
2023-02-04T10:27:12.247Z,7.60
2023-02-04T10:29:57.528Z,5.70
2023-02-04T10:32:40.553Z,5.90
2023-02-04T10:35:24.279Z,7.90
2023-02-04T10:38:07.697Z,7.90
2023-02-04T10:41:14.317Z,3.20
2023-02-04T10:44:04.765Z,6.50
2023-02-04T10:46:48.542Z,3.70
2023-02-04T10:49:32.532Z,4.10
2023-02-04T10:52:20.229Z,6.80
2023-02-04T10:55:07.064Z,4.60
2023-02-04T10:57:52.377Z,11.20
2023-02-04T11:00:35.220Z,6.00
2023-02-04T11:06:14.844Z,6.20
2023-02-04T11:08:59.918Z,4.30
2023-02-04T11:11:50.441Z,7.30
2023-02-04T11:14:33.887Z,5.80
2023-02-04T11:17:21.613Z,5.10
2023-02-04T11:20:16.382Z,6.60
2023-02-04T11:23:25.835Z,3.50
2023-02-04T11:26:20.299Z,10.20
2023-02-04T11:29:03.067Z,5.10
2023-02-04T11:34:44.885Z,7.60
2023-02-04T11:37:27.895Z,7.40
2023-02-04T11:40:30.518Z,3.90
2023-02-04T11:43:16.096Z,5.50
2023-02-04T11:46:29.207Z,6.40
2023-02-04T11:49:20.130Z,5.50
2023-02-04T11:52:08.801Z,6.00
2023-02-04T11:54:59.194Z,5.90
2023-02-04T11:57:43.956Z,2.80
2023-02-04T12:00:32.375Z,8.50
2023-02-04T12:03:36.401Z,5.10
2023-02-04T12:06:24.917Z,4.50
2023-02-04T12:09:16.671Z,6.00
2023-02-04T12:12:01.841Z,8.50
2023-02-04T12:14:44.695Z,6.70
2023-02-04T12:20:13.431Z,6.00
2023-02-04T12:22:57.440Z,4.50
2023-02-04T12:25:40.857Z,6.70
2023-02-04T12:31:06.787Z,4.60
2023-02-04T12:33:49.990Z,4.30
2023-02-04T12:36:32.795Z,3.80
2023-02-04T12:41:58.743Z,3.90
2023-02-04T12:44:41.663Z,5.60
2023-02-04T12:47:24.554Z,3.40
2023-02-04T12:52:55.170Z,3.60
2023-02-04T12:55:38.191Z,3.30
2023-02-04T12:58:20.993Z,2.30
2023-02-04T13:03:47.797Z,9.00
2023-02-04T13:06:30.915Z,6.40
2023-02-04T13:09:13.797Z,3.60
2023-02-04T13:11:56.581Z,3.70
2023-02-04T13:17:22.790Z,13.30
2023-02-04T13:20:06.463Z,11.80
2023-02-04T13:22:49.268Z,9.50
2023-02-04T13:28:15.772Z,7.70
2023-02-04T13:30:58.672Z,7.60
2023-02-04T13:33:41.698Z,8.40
2023-02-04T13:36:27.790Z,9.40
2023-02-04T13:39:11.682Z,3.10
2023-02-04T13:41:54.644Z,7.60
2023-02-04T13:44:37.480Z,7.20
2023-02-04T13:47:20.313Z,5.80
2023-02-04T13:52:46.345Z,7.50
2023-02-04T13:58:12.440Z,7.70
2023-02-04T14:00:57.635Z,10.40
2023-02-04T14:03:41.074Z,9.00
2023-02-04T14:06:25.380Z,10.60
2023-02-04T14:09:08.192Z,8.00
2023-02-04T14:14:34.741Z,7.20
2023-02-04T14:17:17.664Z,6.70
2023-02-04T14:20:00.496Z,11.20
2023-02-04T14:25:26.487Z,11.80
2023-02-04T14:30:52.466Z,8.20
2023-02-04T14:33:35.269Z,8.90
2023-02-04T14:41:44.565Z,8.80
2023-02-04T14:44:27.353Z,10.30
2023-02-04T14:49:52.807Z,4.80
2023-02-04T14:52:35.606Z,9.10
2023-02-04T14:58:01.318Z,5.60
2023-02-04T15:00:44.910Z,12.80
2023-02-04T15:03:27.768Z,6.10
2023-02-04T15:08:53.435Z,8.00
2023-02-04T15:14:19.559Z,8.70
2023-02-04T15:17:03.809Z,8.50
2023-02-04T15:19:46.750Z,12.50
2023-02-04T15:22:29.885Z,11.30
2023-02-04T15:25:13.203Z,6.30
2023-02-04T15:27:56.072Z,19.70
2023-02-04T15:30:39.421Z,8.30
2023-02-04T15:33:22.430Z,7.50
2023-02-04T15:36:05.848Z,7.80
2023-02-04T15:38:49.179Z,3.80
2023-02-04T15:41:32.693Z,7.00
2023-02-04T15:44:15.563Z,8.90
2023-02-04T15:49:41.047Z,10.40
2023-02-04T15:55:09.126Z,8.90
2023-02-04T15:57:52.194Z,8.30
2023-02-04T16:00:35.506Z,8.20
2023-02-04T16:03:18.726Z,10.10
2023-02-04T16:08:44.655Z,12.20
2023-02-04T16:14:10.288Z,10.50
2023-02-04T16:19:36.777Z,12.80
2023-02-04T16:22:19.674Z,13.80
2023-02-04T16:25:02.556Z,12.20
2023-02-04T16:30:28.357Z,13.00
2023-02-04T16:33:12.489Z,14.00
2023-02-04T16:36:01.521Z,15.60
2023-02-04T16:38:44.519Z,11.90
2023-02-04T16:41:27.388Z,10.30
2023-02-04T16:46:53.308Z,14.40
2023-02-04T16:49:36.429Z,11.40
2023-02-04T16:52:19.544Z,11.70
2023-02-04T16:55:02.377Z,15.00
2023-02-04T17:00:28.084Z,8.80
2023-02-04T17:05:57.836Z,6.10
2023-02-04T17:11:30.338Z,9.50
2023-02-04T17:14:17.303Z,11.00
2023-02-04T17:17:00.226Z,12.90
2023-02-04T17:19:43.041Z,14.40
2023-02-04T17:25:08.684Z,9.10
2023-02-04T17:30:34.581Z,10.80
2023-02-04T17:36:02.246Z,8.80
2023-02-04T17:38:45.076Z,13.50
2023-02-04T17:47:00.326Z,10.90
2023-02-04T17:49:43.653Z,11.10
2023-02-04T17:55:23.029Z,15.30
2023-02-04T17:58:15.668Z,17.30
2023-02-04T18:00:59.137Z,9.20
2023-02-04T18:03:43.938Z,15.10
2023-02-04T18:06:29.194Z,11.00
2023-02-04T18:09:15.805Z,6.90
2023-02-04T18:11:58.737Z,9.80
2023-02-04T18:17:28.749Z,8.80
2023-02-04T18:20:19.065Z,8.80
2023-02-04T18:23:06.138Z,11.80
2023-02-04T18:25:49.049Z,14.90
2023-02-04T18:28:35.972Z,11.30
2023-02-04T18:31:45.721Z,15.80
2023-02-04T18:34:45.029Z,13.90
2023-02-04T18:37:36.586Z,12.30
2023-02-04T18:40:31.555Z,9.60
2023-02-04T18:43:27.766Z,8.60
2023-02-04T18:46:24.586Z,10.50
2023-02-04T18:49:27.079Z,11.70
2023-02-04T18:52:18.176Z,12.00
2023-02-04T18:55:02.117Z,13.10
2023-02-04T18:57:45.027Z,13.00
2023-02-04T19:00:32.432Z,12.80
2023-02-04T19:03:27.478Z,8.70
2023-02-04T19:06:37.383Z,11.10
2023-02-04T19:09:32.744Z,9.90
2023-02-04T19:12:22.390Z,9.60
2023-02-04T19:15:30.076Z,8.80
2023-02-04T19:18:24.635Z,17.90
2023-02-04T19:21:22.574Z,13.80
2023-02-04T19:24:17.802Z,13.50
2023-02-04T19:27:02.600Z,13.60
2023-02-04T19:29:45.516Z,18.70
2023-02-04T19:35:18.873Z,14.60
2023-02-04T19:38:12.538Z,13.60
2023-02-04T19:40:55.492Z,11.30
2023-02-04T19:43:38.615Z,14.70
2023-02-04T19:46:24.923Z,13.30
2023-02-04T19:49:21.006Z,16.70
2023-02-04T19:52:21.385Z,11.20
2023-02-04T19:55:25.117Z,14.90
2023-02-04T19:58:38.005Z,16.60
2023-02-04T20:01:21.191Z,19.90
2023-02-04T20:04:14.087Z,16.80
2023-02-04T20:06:56.908Z,17.30
2023-02-04T20:09:39.818Z,16.10
2023-02-04T20:15:21.025Z,18.30
2023-02-04T20:18:17.089Z,18.20
2023-02-04T20:20:59.984Z,16.00
2023-02-04T20:23:42.846Z,19.00
2023-02-04T20:29:21.776Z,16.80
2023-02-04T20:32:19.456Z,22.30
2023-02-04T20:35:08.044Z,18.40
2023-02-04T20:37:58.344Z,14.20
2023-02-04T20:40:42.789Z,17.80
2023-02-04T20:43:26.625Z,17.10
2023-02-04T20:46:20.030Z,20.40
2023-02-04T20:49:18.955Z,21.70
2023-02-04T20:52:01.970Z,18.60
2023-02-04T20:54:45.000Z,19.20
2023-02-04T20:57:27.937Z,18.90
2023-02-04T21:00:34.334Z,19.30
2023-02-04T21:03:36.951Z,24.40
2023-02-04T21:06:29.609Z,16.70
2023-02-04T21:09:25.250Z,17.90
2023-02-04T21:12:08.981Z,19.00
2023-02-04T21:14:52.239Z,21.60
2023-02-04T21:17:35.128Z,20.50
2023-02-04T21:23:01.812Z,12.20
2023-02-04T21:25:45.236Z,15.10
2023-02-04T21:28:30.564Z,15.00
2023-02-04T21:31:13.733Z,11.80
2023-02-04T21:33:57.244Z,10.40
2023-02-04T21:36:40.153Z,12.90
2023-02-04T21:39:23.157Z,19.10
2023-02-04T21:42:13.459Z,15.20
2023-02-04T21:45:01.390Z,11.20
2023-02-04T21:47:45.616Z,13.40
2023-02-04T21:50:29.730Z,11.10
2023-02-04T21:53:13.621Z,13.80
2023-02-04T21:55:58.446Z,16.30
2023-02-04T21:58:42.185Z,12.60
2023-02-04T22:04:08.116Z,8.80
2023-02-04T22:09:33.852Z,9.60
2023-02-04T22:12:18.413Z,11.70
2023-02-04T22:15:04.219Z,10.40
2023-02-04T22:17:48.333Z,12.60
2023-02-04T22:20:31.233Z,12.20
2023-02-04T22:25:57.035Z,14.40
2023-02-04T22:31:22.767Z,11.00
2023-02-04T22:34:05.734Z,20.00
2023-02-04T22:39:31.607Z,13.20
2023-02-04T22:44:58.157Z,16.70
2023-02-04T22:47:41.101Z,15.00
2023-02-04T22:50:24.020Z,11.40
2023-02-04T22:55:49.616Z,14.90
2023-02-04T23:01:15.620Z,14.90
2023-02-04T23:03:58.541Z,15.40
2023-02-04T23:06:41.676Z,14.80
2023-02-04T23:12:14.288Z,13.50
2023-02-04T23:14:57.140Z,12.50
2023-02-04T23:20:23.135Z,13.70
2023-02-04T23:23:06.656Z,14.70
2023-02-04T23:25:50.387Z,13.40
2023-02-04T23:28:33.728Z,14.90
2023-02-04T23:31:16.880Z,15.50
2023-02-04T23:33:59.854Z,14.10
2023-02-04T23:36:45.765Z,13.20
2023-02-04T23:39:28.655Z,10.70
2023-02-04T23:44:54.489Z,13.40
2023-02-04T23:47:38.059Z,9.20
2023-02-04T23:53:04.104Z,12.20
2023-02-04T23:55:47.062Z,13.70
2023-02-04T23:58:30.015Z,12.60
